Time;durP1;ratioP1;P1;durP2;ratioP2;P2;SDS_P1;SDS_P2;PMS_P1;PMS_P2;Temp;Humidity;BMP_temperature;BMP_pressure;BME280_temperature;BME280_humidity;BME280_pressure;Samples;Min_cycle;Max_cycle;Signal;HPM_P1;HPM_P2
2021/12/26 00:00:59;;;;;;;24.45;13.93;;;9.20;99.90;;;;;;5068200;28;20024;-56
2021/12/26 00:03:27;;;;;;;24.25;12.10;;;9.30;99.90;;;;;;5067342;28;20036;-55
2021/12/26 00:05:55;;;;;;;21.65;14.27;;;9.30;99.90;;;;;;5069730;28;20244;-57
2021/12/26 00:08:21;;;;;;;22.85;12.98;;;9.20;99.90;;;;;;5069232;28;20032;-56
2021/12/26 00:10:48;;;;;;;22.05;13.25;;;9.10;99.90;;;;;;5067716;28;20025;-55
2021/12/26 00:13:16;;;;;;;22.55;12.40;;;9.20;99.90;;;;;;5067487;28;20044;-56
2021/12/26 00:15:42;;;;;;;23.02;13.88;;;9.20;99.90;;;;;;5069150;28;20020;-53
2021/12/26 00:18:10;;;;;;;21.98;13.07;;;9.10;99.90;;;;;;5068407;28;20033;-57
2021/12/26 00:20:37;;;;;;;26.38;14.10;;;9.10;99.90;;;;;;5070284;28;20066;-56
2021/12/26 00:23:03;;;;;;;27.00;13.77;;;9.00;99.90;;;;;;5066870;28;20032;-56
2021/12/26 00:25:29;;;;;;;26.40;13.07;;;9.00;99.90;;;;;;5067805;28;20024;-56
2021/12/26 00:27:55;;;;;;;21.40;11.48;;;8.90;99.90;;;;;;5067351;28;20086;-57
2021/12/26 00:30:21;;;;;;;21.83;10.48;;;8.90;99.90;;;;;;5067559;28;20901;-56
2021/12/26 00:32:47;;;;;;;24.30;9.90;;;9.00;99.90;;;;;;5071043;28;20148;-55
2021/12/26 00:35:18;;;;;;;18.40;9.07;;;9.10;99.90;;;;;;5069639;28;20119;-55
2021/12/26 00:37:45;;;;;;;21.98;9.40;;;9.10;99.90;;;;;;5066801;28;20032;-54
2021/12/26 00:40:14;;;;;;;18.73;8.63;;;9.00;99.90;;;;;;5067250;28;20112;-53
2021/12/26 00:42:41;;;;;;;18.17;8.57;;;8.80;99.90;;;;;;5067036;28;20491;-58
2021/12/26 00:45:08;;;;;;;17.35;8.00;;;8.60;99.90;;;;;;5068437;28;20029;-55
2021/12/26 00:47:34;;;;;;;19.02;8.52;;;8.40;99.90;;;;;;5070366;28;20063;-55
2021/12/26 00:50:01;;;;;;;25.95;9.38;;;8.40;99.90;;;;;;5067157;28;20028;-56
2021/12/26 00:52:27;;;;;;;19.90;8.80;;;8.30;99.90;;;;;;5067220;28;20112;-57
2021/12/26 00:54:53;;;;;;;22.20;9.45;;;8.40;99.90;;;;;;5068577;28;20052;-57
2021/12/26 00:57:19;;;;;;;18.65;9.57;;;8.40;99.90;;;;;;5067089;28;20048;-55
2021/12/26 00:59:45;;;;;;;17.90;9.20;;;8.20;99.90;;;;;;5071674;28;20029;-55
2021/12/26 01:02:11;;;;;;;24.55;8.98;;;8.20;99.90;;;;;;5066600;28;20406;-56
2021/12/26 01:04:39;;;;;;;18.50;8.77;;;8.20;99.90;;;;;;5066674;28;20036;-56
2021/12/26 01:07:12;;;;;;;20.75;9.82;;;8.20;99.90;;;;;;5067012;28;20087;-54
2021/12/26 01:09:38;;;;;;;17.73;8.90;;;8.30;99.90;;;;;;5067606;28;20040;-55
2021/12/26 01:12:12;;;;;;;18.45;9.93;;;8.20;99.90;;;;;;5068995;28;20040;-55
2021/12/26 01:14:46;;;;;;;23.67;9.85;;;8.30;99.90;;;;;;5070465;28;20035;-55
2021/12/26 01:17:18;;;;;;;;;;;8.30;99.90;;;;;;5067393;28;20013;-56
2021/12/26 01:19:46;;;;;;;22.10;9.38;;;8.30;99.90;;;;;;5066573;28;20298;-56
2021/12/26 01:22:13;;;;;;;21.38;9.90;;;8.30;99.90;;;;;;5066626;28;20024;-56
2021/12/26 01:24:39;;;;;;;19.35;7.43;;;8.40;99.90;;;;;;5066799;28;20119;-56
2021/12/26 01:27:06;;;;;;;17.20;8.75;;;8.30;99.90;;;;;;5068573;28;20271;-56
2021/12/26 01:29:33;;;;;;;18.77;8.27;;;8.30;99.90;;;;;;5069948;28;20411;-56
2021/12/26 01:31:59;;;;;;;18.38;8.52;;;8.40;99.90;;;;;;5067239;28;20025;-58
2021/12/26 01:34:25;;;;;;;17.90;8.90;;;8.40;99.90;;;;;;5071624;28;20422;-55
2021/12/26 01:36:51;;;;;;;17.33;7.63;;;8.40;99.90;;;;;;5070381;28;20017;-57
2021/12/26 01:39:17;;;;;;;16.60;9.10;;;8.50;99.90;;;;;;5070612;28;20078;-56
2021/12/26 01:41:44;;;;;;;18.90;9.30;;;8.40;99.90;;;;;;5070065;28;20435;-57
2021/12/26 01:44:13;;;;;;;17.45;9.32;;;8.40;99.90;;;;;;5070075;28;20044;-56
2021/12/26 01:46:39;;;;;;;16.05;8.50;;;8.40;99.90;;;;;;5069844;28;20036;-56
2021/12/26 01:49:07;;;;;;;17.10;9.32;;;8.40;99.90;;;;;;5070004;28;20036;-56
2021/12/26 01:51:33;;;;;;;21.10;8.82;;;8.40;99.90;;;;;;5068930;28;20503;-55
2021/12/26 01:54:04;;;;;;;22.00;8.70;;;8.40;99.90;;;;;;5072652;28;20063;-56
2021/12/26 01:56:30;;;;;;;22.75;9.70;;;8.50;99.90;;;;;;5072693;28;20024;-55
2021/12/26 01:58:57;;;;;;;15.43;8.27;;;8.60;99.90;;;;;;5068679;28;20029;-55
2021/12/26 02:01:23;;;;;;;18.77;9.13;;;8.60;99.90;;;;;;5069353;28;20024;-54
2021/12/26 02:03:49;;;;;;;18.45;9.18;;;8.70;99.90;;;;;;5068881;28;20040;-57
2021/12/26 02:06:15;;;;;;;15.90;8.63;;;8.60;99.90;;;;;;5070823;28;20050;-55
2021/12/26 02:08:41;;;;;;;17.23;9.35;;;8.60;99.90;;;;;;5073653;28;20032;-55
2021/12/26 02:11:07;;;;;;;18.95;9.18;;;8.60;99.90;;;;;;5069557;28;20032;-56
2021/12/26 02:13:37;;;;;;;19.73;8.52;;;8.60;99.90;;;;;;5071272;28;20016;-56
2021/12/26 02:16:04;;;;;;;16.75;9.18;;;8.60;99.90;;;;;;5069248;28;20060;-55
2021/12/26 02:18:30;;;;;;;17.88;9.50;;;8.60;99.90;;;;;;5069422;28;20017;-55
2021/12/26 02:23:35;;;;;;;19.55;9.68;;;8.70;99.90;;;;;;5071681;28;20410;-56
2021/12/26 02:28:44;;;;;;;21.30;9.82;;;8.70;99.90;;;;;;5069354;28;20422;-56
2021/12/26 02:31:11;;;;;;;19.48;10.63;;;8.60;99.90;;;;;;5069493;28;20060;-54
2021/12/26 02:33:37;;;;;;;19.00;10.27;;;8.60;99.90;;;;;;5069224;28;20519;-56
2021/12/26 02:36:06;;;;;;;25.15;9.73;;;8.60;99.90;;;;;;5071190;28;20058;-55
2021/12/26 02:38:33;;;;;;;17.65;8.80;;;8.60;99.90;;;;;;5072739;28;20029;-56
2021/12/26 02:41:00;;;;;;;16.95;9.43;;;8.80;99.90;;;;;;5069321;28;20029;-57
2021/12/26 02:43:29;;;;;;;21.42;11.90;;;8.80;99.90;;;;;;5068837;28;20044;-56
2021/12/26 02:45:55;;;;;;;22.35;11.35;;;8.80;99.90;;;;;;5069089;28;20028;-53
2021/12/26 02:48:21;;;;;;;23.52;10.57;;;8.70;99.90;;;;;;5068622;28;20367;-55
2021/12/26 02:50:56;;;;;;;20.83;12.00;;;8.80;99.90;;;;;;5073417;28;20021;-57
2021/12/26 02:53:22;;;;;;;17.80;10.25;;;8.90;99.90;;;;;;5072192;28;20036;-55
2021/12/26 02:55:49;;;;;;;22.52;11.07;;;8.90;99.90;;;;;;5068779;28;20107;-56
2021/12/26 02:58:15;;;;;;;27.45;12.82;;;8.80;99.90;;;;;;5068791;28;20088;-57
2021/12/26 03:00:54;;;;;;;25.77;13.80;;;8.80;99.90;;;;;;5068514;28;20062;-57
2021/12/26 03:03:20;;;;;;;24.77;15.98;;;8.80;99.90;;;;;;5053278;28;20040;-56
2021/12/26 03:05:53;;;;;;;20.75;14.77;;;8.70;99.90;;;;;;5073187;28;20031;-56
2021/12/26 03:08:19;;;;;;;25.25;16.73;;;8.70;99.90;;;;;;5071791;28;20040;-56
2021/12/26 03:10:45;;;;;;;23.63;11.48;;;8.60;99.90;;;;;;5068578;28;20023;-53
2021/12/26 03:13:13;;;;;;;17.35;10.02;;;8.60;99.90;;;;;;5068297;28;20028;-57
2021/12/26 03:15:40;;;;;;;19.60;9.18;;;8.50;99.90;;;;;;5068318;28;20020;-57
2021/12/26 03:18:07;;;;;;;22.40;8.43;;;8.50;99.90;;;;;;5069728;28;20134;-57
2021/12/26 03:20:38;;;;;;;15.13;7.65;;;8.50;99.90;;;;;;5071075;28;20063;-57
2021/12/26 03:23:05;;;;;;;19.70;8.98;;;8.50;99.90;;;;;;5070158;28;20116;-57
2021/12/26 03:25:32;;;;;;;18.17;8.65;;;8.60;99.90;;;;;;5068494;28;20021;-56
2021/12/26 03:27:59;;;;;;;16.98;8.93;;;8.60;99.90;;;;;;5068237;28;20074;-56
2021/12/26 03:30:27;;;;;;;18.08;10.40;;;8.70;99.90;;;;;;5069351;28;20032;-57
2021/12/26 03:32:55;;;;;;;22.10;11.10;;;8.60;99.90;;;;;;5071215;28;20055;-55
2021/12/26 03:35:23;;;;;;;23.60;10.35;;;8.70;99.90;;;;;;5070789;28;20107;-57
2021/12/26 03:37:48;;;;;;;22.55;11.68;;;8.70;99.90;;;;;;5068083;28;20036;-56
2021/12/26 03:40:14;;;;;;;22.02;10.88;;;8.80;99.90;;;;;;5068039;28;20402;-57
2021/12/26 03:42:40;;;;;;;25.83;11.65;;;8.70;99.90;;;;;;5067729;28;20039;-56
2021/12/26 03:45:08;;;;;;;24.85;12.18;;;8.70;99.90;;;;;;5069438;28;20104;-55
2021/12/26 03:47:34;;;;;;;23.40;13.02;;;8.60;99.90;;;;;;5070752;28;20024;-57
2021/12/26 03:50:01;;;;;;;23.92;12.32;;;8.60;99.90;;;;;;5067891;28;20036;-57
2021/12/26 03:52:27;;;;;;;22.42;12.48;;;8.60;99.90;;;;;;5067711;28;20031;-57
2021/12/26 03:54:53;;;;;;;30.30;13.00;;;8.70;99.90;;;;;;5067546;28;20028;-56
2021/12/26 03:57:20;;;;;;;24.75;12.80;;;8.70;99.90;;;;;;5065273;28;20034;-57
2021/12/26 03:59:46;;;;;;;21.45;11.48;;;8.70;99.90;;;;;;5071730;28;20486;-56
2021/12/26 04:02:14;;;;;;;21.80;10.50;;;8.80;99.90;;;;;;5067280;28;20059;-57
2021/12/26 04:04:41;;;;;;;20.33;10.40;;;8.90;99.90;;;;;;5067749;28;20555;-57
2021/12/26 04:07:08;;;;;;;19.67;10.50;;;9.00;99.90;;;;;;5067864;28;20032;-55
2021/12/26 04:09:33;;;;;;;18.10;9.90;;;9.00;99.90;;;;;;5069349;28;20028;-56
2021/12/26 04:11:59;;;;;;;26.45;11.88;;;9.00;99.90;;;;;;5069989;28;20486;-55
2021/12/26 04:14:25;;;;;;;26.05;11.30;;;8.90;99.90;;;;;;5069131;28;20052;-58
2021/12/26 04:16:50;;;;;;;25.92;11.40;;;8.90;99.90;;;;;;5067579;28;20390;-56
2021/12/26 04:19:16;;;;;;;23.27;9.80;;;8.90;99.90;;;;;;5067379;28;20112;-55
2021/12/26 04:21:42;;;;;;;22.73;11.95;;;9.00;99.90;;;;;;5067549;28;20100;-57
2021/12/26 04:24:08;;;;;;;25.00;12.02;;;9.00;99.90;;;;;;5069125;28;20804;-57
2021/12/26 04:26:34;;;;;;;19.90;11.02;;;8.90;99.90;;;;;;5070116;28;20075;-56
2021/12/26 04:28:59;;;;;;;17.90;9.60;;;8.90;99.90;;;;;;5067176;28;20486;-56
2021/12/26 04:31:25;;;;;;;25.88;11.82;;;8.90;99.90;;;;;;5067585;28;20048;-57
2021/12/26 04:33:51;;;;;;;21.98;11.68;;;9.00;99.90;;;;;;5067077;28;20506;-57
2021/12/26 04:36:18;;;;;;;26.00;12.30;;;8.90;99.90;;;;;;5067770;28;20016;-57
2021/12/26 04:38:44;;;;;;;24.35;11.23;;;8.90;99.90;;;;;;5067209;28;20473;-54
2021/12/26 04:41:11;;;;;;;28.67;11.90;;;8.90;99.90;;;;;;5067409;28;20086;-56
2021/12/26 04:43:37;;;;;;;27.80;12.57;;;8.90;99.90;;;;;;5067056;28;20041;-57
2021/12/26 04:46:05;;;;;;;25.55;11.57;;;8.90;99.90;;;;;;5067180;28;20486;-54
2021/12/26 04:48:33;;;;;;;20.48;10.13;;;8.90;99.90;;;;;;5069175;28;20490;-57
2021/12/26 04:50:59;;;;;;;25.63;12.65;;;9.00;99.90;;;;;;5069782;28;20025;-57
2021/12/26 04:53:26;;;;;;;24.35;11.15;;;9.00;99.90;;;;;;5068758;28;20037;-54
2021/12/26 04:55:51;;;;;;;24.08;11.45;;;8.90;99.90;;;;;;5067540;28;20060;-56
2021/12/26 04:58:17;;;;;;;20.77;10.18;;;8.90;99.90;;;;;;5066767;28;20064;-56
2021/12/26 05:00:43;;;;;;;21.52;10.57;;;9.00;99.90;;;;;;5067157;28;20478;-57
2021/12/26 05:03:09;;;;;;;25.63;10.60;;;8.90;99.90;;;;;;5068398;28;20095;-56
2021/12/26 05:05:36;;;;;;;19.13;9.60;;;9.10;99.90;;;;;;5070056;28;20032;-56
2021/12/26 05:08:03;;;;;;;26.13;11.43;;;9.00;99.90;;;;;;5070221;28;20162;-54
2021/12/26 05:10:29;;;;;;;22.08;10.65;;;9.10;99.90;;;;;;5070862;28;20017;-55
2021/12/26 05:12:57;;;;;;;16.35;9.00;;;9.10;99.90;;;;;;5070491;28;20036;-56
2021/12/26 05:15:24;;;;;;;22.25;9.43;;;9.10;99.90;;;;;;5070576;28;20052;-56
2021/12/26 05:17:50;;;;;;;22.20;9.57;;;9.10;99.90;;;;;;5074093;28;20028;-57
2021/12/26 05:20:18;;;;;;;23.42;9.80;;;9.10;99.90;;;;;;5072098;28;20056;-55
2021/12/26 05:22:45;;;;;;;22.70;9.48;;;9.10;99.90;;;;;;5070384;28;20036;-57
2021/12/26 05:25:11;;;;;;;30.23;10.75;;;9.10;99.90;;;;;;5070497;28;22453;-56
2021/12/26 05:27:38;;;;;;;35.88;11.88;;;9.10;99.90;;;;;;5071802;28;20036;-56
2021/12/26 05:30:06;;;;;;;40.10;11.85;;;9.10;99.90;;;;;;5073165;28;20533;-55
2021/12/26 05:32:32;;;;;;;35.42;11.23;;;9.10;99.90;;;;;;5072594;28;20051;-56
2021/12/26 05:34:58;;;;;;;38.13;11.52;;;9.20;99.90;;;;;;5070295;28;20417;-56
2021/12/26 05:37:23;;;;;;;28.67;11.00;;;9.20;99.90;;;;;;5070437;28;20035;-57
2021/12/26 05:39:49;;;;;;;40.10;11.00;;;9.20;99.90;;;;;;5070534;28;20055;-57
2021/12/26 05:42:16;;;;;;;33.63;12.40;;;9.20;99.90;;;;;;5070847;28;20150;-56
2021/12/26 05:44:46;;;;;;;25.25;10.70;;;9.20;99.90;;;;;;5072873;28;20596;-56
2021/12/26 05:47:12;;;;;;;31.98;12.25;;;9.20;99.90;;;;;;5069969;28;20375;-55
2021/12/26 05:49:38;;;;;;;29.88;11.50;;;9.20;99.90;;;;;;5068909;28;20028;-57
2021/12/26 05:52:05;;;;;;;27.90;11.73;;;9.20;99.90;;;;;;5070419;28;20028;-56
2021/12/26 05:54:31;;;;;;;31.92;12.23;;;9.20;99.90;;;;;;5069820;28;20053;-56
2021/12/26 05:56:57;;;;;;;31.52;12.57;;;9.20;99.90;;;;;;5072375;28;20052;-57
2021/12/26 05:59:23;;;;;;;53.45;16.23;;;9.20;99.90;;;;;;5071618;28;20028;-56
2021/12/26 06:01:49;;;;;;;36.22;13.50;;;9.10;99.90;;;;;;5069694;28;20036;-56
2021/12/26 06:04:14;;;;;;;40.95;24.95;;;9.00;99.90;;;;;;5069947;28;20058;-55
2021/12/26 06:06:40;;;;;;;41.72;14.55;;;9.10;99.90;;;;;;5071948;28;20033;-57
2021/12/26 06:09:06;;;;;;;50.20;14.52;;;9.20;99.90;;;;;;5071398;28;20021;-57
2021/12/26 06:11:33;;;;;;;27.20;11.73;;;9.20;99.90;;;;;;5072099;28;20059;-56
2021/12/26 06:13:58;;;;;;;25.73;10.70;;;9.20;99.90;;;;;;5069809;28;20043;-57
2021/12/26 06:16:24;;;;;;;31.88;11.48;;;9.20;99.90;;;;;;5069618;28;20033;-56
2021/12/26 06:18:50;;;;;;;29.23;12.38;;;9.10;99.90;;;;;;5069285;28;20017;-58
2021/12/26 06:21:16;;;;;;;31.80;11.88;;;9.00;99.90;;;;;;5070121;28;20032;-56
2021/12/26 06:23:41;;;;;;;32.38;12.20;;;8.90;99.90;;;;;;5073182;28;20033;-57
2021/12/26 06:26:07;;;;;;;33.08;12.02;;;8.80;99.90;;;;;;5069400;28;20070;-56
2021/12/26 06:28:32;;;;;;;39.35;13.90;;;8.70;99.90;;;;;;5069369;28;20028;-57
2021/12/26 06:30:58;;;;;;;23.83;9.73;;;8.60;99.90;;;;;;5069582;28;20024;-57
2021/12/26 06:33:24;;;;;;;34.17;12.35;;;8.50;99.90;;;;;;5068882;28;20048;-55
2021/12/26 06:35:52;;;;;;;26.08;11.20;;;8.50;99.90;;;;;;5072925;28;20029;-56
2021/12/26 06:38:18;;;;;;;40.13;13.82;;;8.40;99.90;;;;;;5070348;28;20028;-49
2021/12/26 06:40:43;;;;;;;24.27;9.82;;;8.40;99.90;;;;;;5068039;28;20048;-56
2021/12/26 06:43:11;;;;;;;29.23;12.20;;;8.20;99.90;;;;;;5069102;28;20514;-57
2021/12/26 06:45:37;;;;;;;36.38;12.93;;;8.30;99.90;;;;;;5070702;28;20032;-55
2021/12/26 06:48:06;;;;;;;29.20;11.13;;;8.30;99.90;;;;;;5071248;28;20024;-55
2021/12/26 06:50:32;;;;;;;29.00;12.00;;;8.30;99.90;;;;;;5071087;28;20029;-57
2021/12/26 06:52:57;;;;;;;29.25;11.80;;;8.40;99.90;;;;;;5068766;28;20039;-55
2021/12/26 06:55:23;;;;;;;29.58;12.55;;;8.30;99.90;;;;;;5068612;28;20032;-55
2021/12/26 06:57:49;;;;;;;25.38;11.52;;;8.30;99.90;;;;;;5069347;28;20028;-55
2021/12/26 07:00:16;;;;;;;31.08;11.38;;;8.30;99.90;;;;;;5069668;28;20029;-57
2021/12/26 07:02:44;;;;;;;20.38;9.70;;;8.30;99.90;;;;;;5072088;28;20078;-57
2021/12/26 07:05:14;;;;;;;23.65;9.88;;;8.30;99.90;;;;;;5068946;28;20032;-55
2021/12/26 07:07:41;;;;;;;21.75;9.57;;;8.40;99.90;;;;;;5068587;28;20107;-57
2021/12/26 07:10:08;;;;;;;34.92;11.65;;;8.40;99.90;;;;;;5068535;28;20397;-56
2021/12/26 07:12:34;;;;;;;30.10;10.23;;;8.50;99.90;;;;;;5068844;28;20082;-55
2021/12/26 07:15:00;;;;;;;24.52;10.40;;;8.40;99.90;;;;;;5070728;28;20021;-56
2021/12/26 07:17:26;;;;;;;27.55;12.32;;;8.50;99.90;;;;;;5070092;28;20078;-55
2021/12/26 07:19:52;;;;;;;31.45;14.13;;;8.50;99.90;;;;;;5068493;28;20028;-56
2021/12/26 07:22:17;;;;;;;37.88;15.15;;;8.50;99.90;;;;;;5068247;28;20036;-56
2021/12/26 07:24:46;;;;;;;35.00;16.75;;;8.50;99.90;;;;;;5068384;28;20431;-57
2021/12/26 07:27:15;;;;;;;44.53;19.52;;;8.60;99.90;;;;;;5069311;28;20028;-56
2021/12/26 07:29:41;;;;;;;45.10;16.85;;;8.60;99.90;;;;;;5070548;28;20478;-55
2021/12/26 07:32:08;;;;;;;50.72;20.35;;;8.70;99.90;;;;;;5067861;28;20033;-55
2021/12/26 07:34:34;;;;;;;29.95;14.13;;;8.60;99.90;;;;;;5067923;28;20040;-55
2021/12/26 07:37:02;;;;;;;36.10;14.75;;;8.70;99.90;;;;;;5067856;28;20393;-55
2021/12/26 07:39:27;;;;;;;33.20;13.32;;;8.80;99.90;;;;;;5068662;28;20037;-54
2021/12/26 07:41:53;;;;;;;35.85;14.20;;;8.90;99.90;;;;;;5071049;28;20051;-56
2021/12/26 07:44:19;;;;;;;47.83;14.75;;;8.80;99.90;;;;;;5069222;28;20039;-53
2021/12/26 07:46:45;;;;;;;48.70;15.55;;;8.70;99.90;;;;;;5068660;28;20059;-55
2021/12/26 07:49:10;;;;;;;29.30;12.52;;;8.60;99.90;;;;;;5067698;28;20623;-55
2021/12/26 07:51:36;;;;;;;45.67;13.98;;;8.70;99.90;;;;;;5067526;28;20115;-56
2021/12/26 07:54:02;;;;;;;47.33;13.80;;;8.60;99.90;;;;;;5070597;28;20044;-55
2021/12/26 07:56:31;;;;;;;45.03;13.30;;;8.60;99.90;;;;;;5069358;28;20017;-53
2021/12/26 07:58:58;;;;;;;35.58;12.90;;;8.70;99.90;;;;;;5067749;28;20107;-55
2021/12/26 08:01:27;;;;;;;56.67;14.93;;;8.70;99.90;;;;;;5068257;28;20565;-54
2021/12/26 08:03:53;;;;;;;54.53;14.70;;;8.50;99.90;;;;;;5068931;28;20032;-55
2021/12/26 08:06:20;;;;;;;41.08;12.43;;;8.60;99.90;;;;;;5067816;28;20025;-56
2021/12/26 08:08:47;;;;;;;36.17;12.73;;;8.70;99.90;;;;;;5067831;28;20102;-57
2021/12/26 08:11:13;;;;;;;45.22;12.88;;;8.80;99.90;;;;;;5067786;28;20025;-56
2021/12/26 08:13:39;;;;;;;35.58;12.68;;;9.00;99.90;;;;;;5067725;28;20107;-56
2021/12/26 08:16:05;;;;;;;31.40;11.38;;;9.00;99.90;;;;;;5067513;28;20145;-56
2021/12/26 08:18:31;;;;;;;41.42;13.23;;;9.10;99.90;;;;;;5067618;28;20017;-56
2021/12/26 08:20:56;;;;;;;37.50;13.00;;;9.30;99.90;;;;;;5070256;28;20107;-56
2021/12/26 08:23:22;;;;;;;38.45;13.57;;;9.50;99.90;;;;;;5070381;28;20036;-55
2021/12/26 08:25:48;;;;;;;35.25;12.00;;;9.80;99.90;;;;;;5067487;28;20486;-55
2021/12/26 08:28:14;;;;;;;26.77;11.52;;;9.60;99.90;;;;;;5067639;28;20031;-55
2021/12/26 08:30:44;;;;;;;31.00;12.43;;;10.10;99.90;;;;;;5067825;28;20118;-56
2021/12/26 08:33:10;;;;;;;21.27;9.82;;;10.10;99.90;;;;;;5068478;28;20411;-55
2021/12/26 08:35:37;;;;;;;29.13;11.60;;;10.10;99.90;;;;;;5069673;28;20020;-55
2021/12/26 08:38:04;;;;;;;32.53;10.30;;;10.20;99.90;;;;;;5067703;28;20047;-55
2021/12/26 08:40:30;;;;;;;39.80;12.60;;;10.30;99.90;;;;;;5067677;28;20028;-55
2021/12/26 08:42:55;;;;;;;30.40;11.02;;;10.20;99.90;;;;;;5072883;28;20031;-55
2021/12/26 08:45:21;;;;;;;24.52;10.48;;;10.20;99.90;;;;;;5071432;28;20119;-57
2021/12/26 08:47:48;;;;;;;31.88;10.57;;;10.70;99.90;;;;;;5075522;28;20016;-57
2021/12/26 08:50:15;;;;;;;22.90;9.90;;;10.70;99.90;;;;;;5070915;28;20519;-56
2021/12/26 08:52:41;;;;;;;34.25;10.93;;;10.90;99.90;;;;;;5071217;28;20021;-56
2021/12/26 08:55:08;;;;;;;23.92;10.05;;;10.60;99.90;;;;;;5071129;28;20483;-55
2021/12/26 08:57:35;;;;;;;31.80;10.23;;;10.50;99.90;;;;;;5071641;28;20090;-56
2021/12/26 09:00:03;;;;;;;26.63;9.63;;;10.70;99.90;;;;;;5073205;28;20025;-56
2021/12/26 09:02:29;;;;;;;18.38;8.52;;;10.70;99.90;;;;;;5073236;28;20174;-55
2021/12/26 09:04:54;;;;;;;27.58;9.30;;;10.60;99.90;;;;;;5070536;28;20143;-56
2021/12/26 09:07:20;;;;;;;24.88;10.05;;;10.60;99.90;;;;;;5070839;28;20036;-56
2021/12/26 09:09:46;;;;;;;24.38;9.88;;;10.70;99.90;;;;;;5069268;28;20021;-55
2021/12/26 09:12:12;;;;;;;22.75;9.25;;;10.90;99.90;;;;;;5071993;28;20036;-53
2021/12/26 09:14:38;;;;;;;20.00;9.18;;;11.00;99.90;;;;;;5073848;28;20501;-55
2021/12/26 09:17:05;;;;;;;20.25;9.52;;;11.20;99.90;;;;;;5070644;28;20029;-54
2021/12/26 09:19:32;;;;;;;22.45;8.63;;;11.20;99.90;;;;;;5070296;28;20441;-55
2021/12/26 09:22:00;;;;;;;20.80;9.18;;;11.10;99.90;;;;;;5071931;28;20035;-57
2021/12/26 09:24:26;;;;;;;26.00;9.35;;;11.30;99.90;;;;;;5071165;28;20045;-56
2021/12/26 09:26:52;;;;;;;20.98;8.75;;;11.40;99.90;;;;;;5073849;28;20093;-56
2021/12/26 09:29:18;;;;;;;23.30;9.80;;;11.40;99.90;;;;;;5071116;28;20115;-55
2021/12/26 09:31:44;;;;;;;20.73;9.30;;;11.50;99.90;;;;;;5070258;28;20099;-54
2021/12/26 09:34:10;;;;;;;23.13;9.07;;;11.60;99.90;;;;;;5069935;28;20021;-56
2021/12/26 09:36:35;;;;;;;30.58;11.45;;;11.70;99.90;;;;;;5070891;28;20030;-54
2021/12/26 09:39:04;;;;;;;23.75;9.77;;;11.70;99.90;;;;;;5072879;28;20024;-55
2021/12/26 09:41:29;;;;;;;17.67;8.35;;;11.90;99.90;;;;;;5072461;28;20021;-57
2021/12/26 09:43:55;;;;;;;19.45;8.00;;;13.00;99.90;;;;;;5070156;28;20047;-54
2021/12/26 09:46:21;;;;;;;15.43;6.90;;;13.20;99.90;;;;;;5070143;28;20078;-57
2021/12/26 09:48:46;;;;;;;19.15;7.30;;;13.10;99.90;;;;;;5069827;28;20024;-56
2021/12/26 09:51:13;;;;;;;22.77;8.15;;;12.90;99.90;;;;;;5071749;28;20029;-56
2021/12/26 09:53:43;;;;;;;20.77;7.28;;;12.70;99.90;;;;;;5072437;28;20021;-56
2021/12/26 09:56:10;;;;;;;18.67;7.40;;;12.50;99.90;;;;;;5069887;28;20068;-54
2021/12/26 09:58:55;;;;;;;16.63;6.85;;;12.50;99.90;;;;;;5069755;28;20093;-56
2021/12/26 10:01:36;;;;;;;23.58;7.13;;;12.40;99.90;;;;;;5071569;28;20440;-56
2021/12/26 10:04:23;;;;;;;20.35;6.95;;;12.50;99.90;;;;;;5070151;28;20094;-56
2021/12/26 10:06:52;;;;;;;22.08;6.78;;;12.40;99.90;;;;;;5066014;28;20072;-57
2021/12/26 10:09:20;;;;;;;17.17;5.75;;;12.30;99.90;;;;;;5070789;28;20032;-56
2021/12/26 10:11:49;;;;;;;21.73;7.50;;;12.30;99.90;;;;;;5073618;28;20082;-57
2021/12/26 10:14:18;;;;;;;23.83;6.88;;;12.40;99.90;;;;;;5069651;28;20051;-56
2021/12/26 10:16:56;;;;;;;23.75;6.47;;;12.50;99.90;;;;;;5069733;28;20036;-56
2021/12/26 10:19:22;;;;;;;20.02;5.57;;;12.50;99.90;;;;;;5069563;28;20019;-56
2021/12/26 10:21:52;;;;;;;18.35;5.50;;;12.60;99.90;;;;;;5069631;28;20407;-55
2021/12/26 10:24:24;;;;;;;23.77;6.25;;;12.70;99.90;;;;;;5070197;28;20468;-53
2021/12/26 10:26:54;;;;;;;18.15;5.97;;;12.70;99.90;;;;;;5069755;28;20028;-57
2021/12/26 10:29:23;;;;;;;20.17;5.82;;;12.80;99.90;;;;;;5070460;28;20028;-57
2021/12/26 10:32:05;;;;;;;18.88;6.32;;;12.90;99.90;;;;;;5068950;28;20060;-56
2021/12/26 10:34:35;;;;;;;14.65;5.40;;;13.20;99.90;;;;;;5069166;28;20127;-57
2021/12/26 10:37:04;;;;;;;18.63;5.65;;;13.50;99.90;;;;;;5069477;28;20032;-56
2021/12/26 10:39:39;;;;;;;17.13;5.93;;;13.60;99.90;;;;;;5071043;28;20025;-58
2021/12/26 10:42:08;;;;;;;15.98;6.25;;;13.90;99.90;;;;;;5071621;28;20488;-56
2021/12/26 10:44:36;;;;;;;16.45;5.60;;;14.10;99.90;;;;;;5071453;28;20029;-56
2021/12/26 10:47:06;;;;;;;16.92;5.55;;;14.30;99.90;;;;;;5067718;28;20115;-56
2021/12/26 10:49:40;;;;;;;19.45;5.03;;;14.60;99.90;;;;;;5068838;28;20443;-56
2021/12/26 10:52:11;;;;;;;;;;;14.70;99.90;;;;;;5069370;28;20028;-55
2021/12/26 10:54:41;;;;;;;15.55;4.97;;;14.60;99.90;;;;;;5069056;28;19935;-56
2021/12/26 10:57:25;;;;;;;15.52;4.82;;;14.70;99.90;;;;;;5071296;28;20037;-56
2021/12/26 11:00:05;;;;;;;16.15;4.40;;;14.50;99.90;;;;;;5068226;28;20102;-57
2021/12/26 11:02:31;;;;;;;19.58;4.72;;;14.50;99.90;;;;;;5070505;28;20024;-56
2021/12/26 11:05:06;;;;;;;18.75;4.25;;;14.30;99.90;;;;;;5067701;28;20036;-57
2021/12/26 11:07:42;;;;;;;19.40;8.70;;;14.20;99.90;;;;;;5068600;28;20436;-57
2021/12/26 11:10:12;;;;;;;15.50;5.45;;;14.10;99.90;;;;;;5068728;28;20025;-57
2021/12/26 11:12:41;;;;;;;17.80;4.38;;;14.00;99.90;;;;;;5068760;28;20082;-57
2021/12/26 11:15:08;;;;;;;20.50;4.82;;;13.90;99.90;;;;;;5070020;28;20021;-57
2021/12/26 11:17:37;;;;;;;24.10;4.47;;;14.00;99.90;;;;;;5071441;28;20028;-56
2021/12/26 11:20:05;;;;;;;14.85;3.53;;;14.00;99.90;;;;;;5069914;28;20027;-57
2021/12/26 11:22:31;;;;;;;16.52;3.38;;;13.90;99.90;;;;;;5068097;28;20032;-58
2021/12/26 11:24:59;;;;;;;18.25;3.80;;;14.00;99.90;;;;;;5068181;28;20031;-57
2021/12/26 11:27:26;;;;;;;21.77;3.90;;;14.10;99.90;;;;;;5068954;28;20029;-56
2021/12/26 11:29:53;;;;;;;20.40;4.10;;;14.00;99.90;;;;;;5071595;28;20049;-58
2021/12/26 11:32:22;;;;;;;23.45;3.80;;;14.00;99.90;;;;;;5068963;28;20451;-56
2021/12/26 11:34:49;;;;;;;20.38;3.58;;;13.90;99.90;;;;;;5066861;28;20052;-57
2021/12/26 11:37:16;;;;;;;16.00;3.40;;;13.90;99.90;;;;;;5068155;28;20120;-58
2021/12/26 11:39:45;;;;;;;16.13;3.53;;;14.10;99.90;;;;;;5068253;28;20036;-57
2021/12/26 11:42:49;;;;;;;19.48;3.53;;;14.10;99.90;;;;;;5069402;28;20036;-55
2021/12/26 11:45:35;;;;;;;22.35;3.72;;;14.10;99.90;;;;;;5068230;28;20029;-57
2021/12/26 11:48:27;;;;;;;19.05;4.10;;;13.90;99.90;;;;;;5067807;28;20060;-56
2021/12/26 11:51:31;;;;;;;21.88;3.85;;;14.00;99.90;;;;;;5071262;28;20029;-58
2021/12/26 11:54:15;;;;;;;19.73;3.60;;;14.00;99.90;;;;;;5067488;28;20029;-57
2021/12/26 11:57:10;;;;;;;22.08;3.63;;;14.00;99.90;;;;;;5071326;28;20555;-55
2021/12/26 12:00:00;;;;;;;19.60;3.75;;;14.00;99.90;;;;;;5070455;28;20460;-57
2021/12/26 12:02:52;;;;;;;17.55;3.35;;;14.00;99.90;;;;;;5070773;28;20033;-57
2021/12/26 12:05:22;;;;;;;19.10;3.45;;;13.90;99.90;;;;;;5068708;28;20561;-57
2021/12/26 12:07:50;;;;;;;15.63;3.30;;;13.80;99.90;;;;;;5066694;28;20028;-56
2021/12/26 12:10:42;;;;;;;17.65;3.88;;;13.90;99.90;;;;;;5067467;28;20494;-56
2021/12/26 12:13:11;;;;;;;14.52;3.47;;;14.00;99.90;;;;;;5067236;28;20391;-56
2021/12/26 12:15:57;;;;;;;15.32;3.63;;;14.10;99.90;;;;;;5067363;28;20056;-57
2021/12/26 12:18:37;;;;;;;21.17;4.15;;;14.40;99.90;;;;;;5051909;28;20110;-56
2021/12/26 12:21:23;;;;;;;15.15;3.53;;;14.40;99.90;;;;;;5070104;28;20476;-56
2021/12/26 12:24:09;;;;;;;14.00;3.95;;;14.70;99.90;;;;;;5071447;28;20053;-57
2021/12/26 12:26:46;;;;;;;18.92;3.85;;;14.70;99.90;;;;;;5070010;28;20035;-57
2021/12/26 12:29:44;;;;;;;30.35;12.85;;;14.60;99.90;;;;;;5067200;28;20394;-57
2021/12/26 12:32:10;;;;;;;54.20;24.58;;;14.60;99.90;;;;;;5065669;28;20406;-57
2021/12/26 12:34:57;;;;;;;47.90;25.35;;;14.70;99.90;;;;;;5066998;28;20033;-57
2021/12/26 12:37:42;;;;;;;75.70;43.65;;;14.50;99.90;;;;;;5068776;28;20036;-57
2021/12/26 12:40:29;;;;;;;184.43;108.22;;;14.40;99.90;;;;;;5067271;28;20386;-57
2021/12/26 12:43:16;;;;;;;137.77;94.80;;;14.30;99.90;;;;;;5066995;28;20097;-57
2021/12/26 12:46:05;;;;;;;94.50;54.28;;;14.30;99.90;;;;;;5067219;28;20124;-57
2021/12/26 12:48:55;;;;;;;118.28;67.63;;;14.70;99.90;;;;;;5052707;28;20029;-57
2021/12/26 12:51:21;;;;;;;23.50;9.27;;;14.70;99.90;;;;;;5051652;28;20502;-57